Time;durP1;ratioP1;P1;durP2;ratioP2;P2;SDS_P1;SDS_P2;PMS_P1;PMS_P2;Temp;Humidity;BMP_temperature;BMP_pressure;BME280_temperature;BME280_humidity;BME280_pressure;Samples;Min_cycle;Max_cycle;Signal;HPM_P1;HPM_P2
2022/11/02 00:00:22;;;;;;;0.00;0.00;;;8.50;99.90;;;;;;4996378;28;20206;-64
2022/11/02 00:02:47;;;;;;;0.10;0.10;;;8.60;99.90;;;;;;5009246;28;20194;-64
2022/11/02 00:05:14;;;;;;;0.32;0.32;;;8.60;99.90;;;;;;4999895;28;20647;-64
2022/11/02 00:07:40;;;;;;;0.00;0.00;;;8.60;99.90;;;;;;5005678;28;20198;-64
2022/11/02 00:10:06;;;;;;;0.05;0.05;;;8.60;99.90;;;;;;4999612;28;20335;-64
2022/11/02 00:12:32;;;;;;;0.00;0.00;;;8.70;99.90;;;;;;5001477;28;20214;-64
2022/11/02 00:14:57;;;;;;;0.00;0.00;;;8.70;99.90;;;;;;5003964;28;20210;-64
2022/11/02 00:17:23;;;;;;;0.10;0.10;;;8.70;99.90;;;;;;5004262;28;20262;-64
2022/11/02 00:19:49;;;;;;;0.38;0.38;;;8.70;99.90;;;;;;5002534;28;20187;-64
2022/11/02 00:22:14;;;;;;;0.15;0.15;;;8.80;99.90;;;;;;5007372;28;20175;-64
2022/11/02 00:24:40;;;;;;;0.03;0.03;;;8.80;99.90;;;;;;4996603;28;20187;-64
2022/11/02 00:27:06;;;;;;;0.00;0.00;;;8.80;99.90;;;;;;4998563;28;20175;-64
2022/11/02 00:29:33;;;;;;;0.20;0.20;;;8.90;99.90;;;;;;5006621;28;20223;-64
2022/11/02 00:31:59;;;;;;;0.13;0.13;;;8.90;99.90;;;;;;4999724;28;20215;-64
2022/11/02 00:34:24;;;;;;;0.15;0.15;;;8.90;99.90;;;;;;5006426;28;20220;-64
2022/11/02 00:36:51;;;;;;;0.00;0.00;;;8.90;99.90;;;;;;5011589;28;20589;-64
2022/11/02 00:39:16;;;;;;;0.00;0.00;;;8.90;99.90;;;;;;5005852;28;20271;-64
2022/11/02 00:41:42;;;;;;;0.10;0.10;;;8.90;99.90;;;;;;5008342;28;20281;-64
2022/11/02 00:44:07;;;;;;;0.00;0.00;;;8.90;99.90;;;;;;4998717;28;20215;-64
2022/11/02 00:46:33;;;;;;;0.00;0.00;;;9.00;99.90;;;;;;4994516;28;20183;-64
2022/11/02 00:48:58;;;;;;;0.00;0.00;;;9.00;99.90;;;;;;5008040;28;20211;-64
2022/11/02 00:51:24;;;;;;;0.10;0.10;;;9.00;99.90;;;;;;5001514;28;20318;-64
2022/11/02 00:53:49;;;;;;;0.00;0.00;;;9.10;99.90;;;;;;4996248;28;20234;-63
2022/11/02 00:56:15;;;;;;;0.00;0.00;;;9.10;99.90;;;;;;5005112;28;20190;-64
2022/11/02 00:58:40;;;;;;;0.00;0.00;;;9.10;99.90;;;;;;5017090;28;20189;-64
2022/11/02 01:01:07;;;;;;;0.10;0.10;;;9.20;99.90;;;;;;5007129;28;20184;-63
2022/11/02 01:03:32;;;;;;;0.00;0.00;;;9.30;99.90;;;;;;5000906;28;20191;-64
2022/11/02 01:05:58;;;;;;;0.00;0.00;;;9.30;99.90;;;;;;5000488;28;20186;-63
2022/11/02 01:08:24;;;;;;;0.00;0.00;;;9.40;99.90;;;;;;5005740;28;20313;-64
2022/11/02 01:10:49;;;;;;;0.00;0.00;;;9.40;99.90;;;;;;4995552;28;20206;-64
2022/11/02 01:13:15;;;;;;;0.10;0.10;;;9.40;99.90;;;;;;5004796;28;20337;-64
2022/11/02 01:15:41;;;;;;;0.00;0.00;;;9.50;99.90;;;;;;5001376;28;20179;-64
2022/11/02 01:18:08;;;;;;;0.00;0.00;;;9.50;99.90;;;;;;5006313;28;20188;-64
2022/11/02 01:20:33;;;;;;;0.00;0.00;;;9.50;99.90;;;;;;4996701;28;20257;-64
2022/11/02 01:22:59;;;;;;;0.00;0.00;;;9.60;99.90;;;;;;5007664;28;20207;-63
2022/11/02 01:25:24;;;;;;;0.00;0.00;;;9.70;99.90;;;;;;5005156;28;20619;-64
2022/11/02 01:27:50;;;;;;;1.88;0.28;;;9.70;99.90;;;;;;5001342;28;20186;-64
2022/11/02 01:30:16;;;;;;;0.00;0.00;;;9.80;99.90;;;;;;4997532;28;20634;-64
2022/11/02 01:32:41;;;;;;;0.20;0.20;;;9.80;99.90;;;;;;5008294;28;20191;-64
2022/11/02 01:35:07;;;;;;;0.00;0.00;;;9.90;99.90;;;;;;4996059;28;20191;-64
2022/11/02 01:37:34;;;;;;;0.00;0.00;;;9.90;99.90;;;;;;5010106;28;20278;-64
2022/11/02 01:39:59;;;;;;;0.00;0.00;;;10.00;99.90;;;;;;4998888;28;20183;-64
2022/11/02 01:42:27;;;;;;;0.00;0.00;;;10.00;99.90;;;;;;4995489;28;20560;-64
2022/11/02 01:44:52;;;;;;;0.00;0.00;;;10.00;99.90;;;;;;4998826;28;20647;-64
2022/11/02 01:47:22;;;;;;;0.40;0.35;;;10.10;99.90;;;;;;5006064;28;20194;-64
2022/11/02 01:49:51;;;;;;;0.00;0.00;;;10.10;99.90;;;;;;4994196;28;20187;-63
2022/11/02 01:52:31;;;;;;;0.00;0.00;;;10.10;99.90;;;;;;5005701;28;20371;-64
2022/11/02 01:55:05;;;;;;;0.00;0.00;;;10.20;99.90;;;;;;5006526;28;20203;-64
2022/11/02 01:57:34;;;;;;;0.00;0.00;;;10.20;99.90;;;;;;5001269;28;20187;-64
2022/11/02 02:00:04;;;;;;;0.00;0.00;;;10.30;99.90;;;;;;5013224;28;20183;-64
2022/11/02 02:02:33;;;;;;;0.00;0.00;;;10.30;99.90;;;;;;4999020;28;20176;-64
2022/11/02 02:05:07;;;;;;;0.00;0.00;;;10.30;99.90;;;;;;5004041;28;20548;-64
2022/11/02 02:07:35;;;;;;;0.00;0.00;;;10.40;99.90;;;;;;5007800;28;20226;-64
2022/11/02 02:10:01;;;;;;;0.00;0.00;;;10.40;99.90;;;;;;4995900;28;20643;-64
2022/11/02 02:12:28;;;;;;;0.35;0.20;;;10.40;99.90;;;;;;4996361;28;20314;-64
2022/11/02 02:14:54;;;;;;;0.00;0.00;;;10.50;99.90;;;;;;5005176;28;20658;-64
2022/11/02 02:17:46;;;;;;;0.00;0.00;;;10.50;99.90;;;;;;5014421;28;20187;-64
2022/11/02 02:20:21;;;;;;;0.10;0.10;;;10.50;99.90;;;;;;5004286;28;20226;-64
2022/11/02 02:23:20;;;;;;;0.00;0.00;;;10.50;99.90;;;;;;4998295;28;20183;-64
2022/11/02 02:26:03;;;;;;;0.00;0.00;;;10.50;99.90;;;;;;5006194;28;20207;-64
2022/11/02 02:28:58;;;;;;;0.00;0.00;;;10.50;99.90;;;;;;5005399;28;20178;-64
2022/11/02 02:31:27;;;;;;;0.00;0.00;;;10.50;99.90;;;;;;5000138;28;20713;-64
2022/11/02 02:34:17;;;;;;;0.00;0.00;;;10.50;99.90;;;;;;5004494;28;20274;-64
2022/11/02 02:36:42;;;;;;;0.03;0.03;;;10.50;99.90;;;;;;5010477;28;20285;-64
2022/11/02 02:39:32;;;;;;;0.00;0.00;;;10.60;99.90;;;;;;5007212;28;20726;-64
2022/11/02 02:42:11;;;;;;;0.00;0.00;;;10.60;99.90;;;;;;5008669;28;20221;-64
2022/11/02 02:44:52;;;;;;;0.00;0.00;;;10.60;99.90;;;;;;5011728;28;20190;-64
2022/11/02 02:47:22;;;;;;;0.00;0.00;;;10.60;99.90;;;;;;4998032;28;20209;-64
2022/11/02 02:49:56;;;;;;;0.00;0.00;;;10.50;99.90;;;;;;5008344;28;20274;-64
2022/11/02 02:52:25;;;;;;;0.00;0.00;;;10.50;99.90;;;;;;5005678;28;20326;-64
2022/11/02 02:54:55;;;;;;;0.00;0.00;;;10.60;99.90;;;;;;5011273;28;20678;-64
2022/11/02 02:57:24;;;;;;;0.00;0.00;;;10.60;99.90;;;;;;5009476;28;20192;-64
2022/11/02 02:59:50;;;;;;;0.00;0.00;;;10.50;99.90;;;;;;5003240;28;20302;-64
2022/11/02 03:02:20;;;;;;;0.00;0.00;;;10.60;99.90;;;;;;5013136;28;20210;-64
2022/11/02 03:04:46;;;;;;;0.00;0.00;;;10.60;99.90;;;;;;4999852;28;20183;-64
2022/11/02 03:07:17;;;;;;;0.00;0.00;;;10.60;99.90;;;;;;5003968;28;20593;-64
2022/11/02 03:09:57;;;;;;;0.00;0.00;;;10.60;99.90;;;;;;5008740;28;20188;-63
2022/11/02 03:12:48;;;;;;;0.00;0.00;;;10.60;99.90;;;;;;4995085;28;20637;-64
2022/11/02 03:15:47;;;;;;;0.00;0.00;;;10.70;99.90;;;;;;5002336;28;20191;-64
2022/11/02 03:18:42;;;;;;;0.00;0.00;;;10.80;99.90;;;;;;4996329;28;20186;-64
2022/11/02 03:21:38;;;;;;;0.00;0.00;;;10.80;99.90;;;;;;5003836;28;20210;-64
2022/11/02 03:24:11;;;;;;;0.10;0.10;;;10.80;99.90;;;;;;4994917;28;20179;-64
2022/11/02 03:26:43;;;;;;;0.00;0.00;;;10.90;99.90;;;;;;4994493;28;20191;-64
2022/11/02 03:29:23;;;;;;;0.13;0.13;;;10.90;99.90;;;;;;5000681;28;20534;-64
2022/11/02 03:31:57;;;;;;;0.00;0.00;;;10.90;99.90;;;;;;5007781;28;20298;-63
2022/11/02 03:34:36;;;;;;;0.00;0.00;;;10.90;99.90;;;;;;5000735;28;20183;-64
2022/11/02 03:37:18;;;;;;;0.00;0.00;;;10.90;99.90;;;;;;5012958;28;20175;-64
2022/11/02 03:39:49;;;;;;;0.00;0.00;;;11.00;99.90;;;;;;5004646;28;20175;-64
2022/11/02 03:42:24;;;;;;;0.00;0.00;;;11.00;99.90;;;;;;5004149;28;20237;-64
2022/11/02 03:44:56;;;;;;;0.00;0.00;;;11.10;99.90;;;;;;4999977;28;20183;-64
2022/11/02 03:47:24;;;;;;;0.00;0.00;;;11.10;99.90;;;;;;5009568;28;20181;-64
2022/11/02 03:49:52;;;;;;;0.00;0.00;;;11.10;99.90;;;;;;5001692;28;20234;-63
2022/11/02 03:52:22;;;;;;;0.10;0.10;;;11.10;99.90;;;;;;5001217;28;20218;-63
2022/11/02 03:55:11;;;;;;;0.05;0.05;;;11.10;99.90;;;;;;5001916;28;20191;-64
2022/11/02 03:57:48;;;;;;;0.00;0.00;;;11.10;99.90;;;;;;5010267;28;20179;-63
2022/11/02 04:00:20;;;;;;;0.00;0.00;;;11.10;99.90;;;;;;5008966;28;20179;-63
2022/11/02 04:02:52;;;;;;;0.00;0.00;;;11.10;99.90;;;;;;5013165;28;20542;-63
2022/11/02 04:05:19;;;;;;;0.00;0.00;;;11.10;99.90;;;;;;4998148;28;20194;-63
2022/11/02 04:10:33;;;;;;;0.00;0.00;;;11.10;99.90;;;;;;4999729;28;20602;-63
2022/11/02 04:15:43;;;;;;;0.00;0.00;;;11.10;99.90;;;;;;4997269;28;20191;-63
2022/11/02 04:20:52;;;;;;;0.00;0.00;;;11.10;99.90;;;;;;5004906;28;20197;-63
2022/11/02 04:26:03;;;;;;;0.00;0.00;;;11.00;99.90;;;;;;4997182;28;20226;-64
2022/11/02 04:28:29;;;;;;;0.00;0.00;;;11.00;99.90;;;;;;4994257;28;20187;-64
2022/11/02 04:30:58;;;;;;;0.00;0.00;;;11.00;99.90;;;;;;5004710;28;20771;-63
2022/11/02 04:33:33;;;;;;;0.00;0.00;;;11.00;99.90;;;;;;5004914;28;20186;-63
2022/11/02 04:36:03;;;;;;;0.00;0.00;;;10.90;99.90;;;;;;5007754;28;20182;-63
2022/11/02 04:38:39;;;;;;;0.00;0.00;;;10.90;99.90;;;;;;5010593;28;20230;-63
2022/11/02 04:43:57;;;;;;;0.00;0.00;;;10.80;99.90;;;;;;4997224;28;20181;-64
2022/11/02 04:46:25;;;;;;;0.00;0.00;;;10.80;99.90;;;;;;5004704;28;20183;-63
2022/11/02 04:48:51;;;;;;;0.17;0.17;;;10.80;99.90;;;;;;5007614;28;20198;-66
2022/11/02 04:51:17;;;;;;;0.00;0.00;;;10.70;99.90;;;;;;4999785;28;20206;-64
2022/11/02 04:53:42;;;;;;;0.00;0.00;;;10.70;99.90;;;;;;5009469;28;20619;-64
2022/11/02 04:56:08;;;;;;;0.00;0.00;;;10.70;99.90;;;;;;5010118;28;20254;-65
2022/11/02 04:58:34;;;;;;;0.00;0.00;;;10.60;99.90;;;;;;5012128;28;20187;-64
2022/11/02 05:01:08;;;;;;;0.00;0.00;;;10.60;99.90;;;;;;5012113;28;20225;-64
2022/11/02 05:03:34;;;;;;;0.00;0.00;;;10.60;99.90;;;;;;5000274;28;20203;-66
2022/11/02 05:06:01;;;;;;;0.00;0.00;;;10.50;99.90;;;;;;5005354;28;20171;-68
2022/11/02 05:08:26;;;;;;;0.00;0.00;;;10.50;99.90;;;;;;5012478;28;20183;-67
2022/11/02 05:10:56;;;;;;;0.00;0.00;;;10.50;99.90;;;;;;4996154;28;20235;-66
2022/11/02 05:13:23;;;;;;;0.03;0.03;;;10.50;99.90;;;;;;4998099;28;20807;-66
2022/11/02 05:15:49;;;;;;;0.00;0.00;;;10.60;99.90;;;;;;5005172;28;20179;-65
2022/11/02 05:18:15;;;;;;;0.00;0.00;;;10.60;99.90;;;;;;5006851;28;20205;-64
2022/11/02 05:20:40;;;;;;;0.00;0.00;;;10.60;99.90;;;;;;5002266;28;20183;-64
2022/11/02 05:23:06;;;;;;;0.00;0.00;;;10.60;99.90;;;;;;5000836;28;20635;-63
2022/11/02 05:25:32;;;;;;;0.00;0.00;;;10.70;99.90;;;;;;5002977;28;20180;-64
2022/11/02 05:27:58;;;;;;;0.00;0.00;;;10.70;99.90;;;;;;5011328;28;20186;-65
2022/11/02 05:30:23;;;;;;;0.00;0.00;;;10.70;99.90;;;;;;5002486;28;20226;-63
2022/11/02 05:32:49;;;;;;;0.00;0.00;;;10.80;99.90;;;;;;5005637;28;20238;-67
2022/11/02 05:35:15;;;;;;;0.20;0.20;;;10.80;99.90;;;;;;5009631;28;20190;-67
2022/11/02 05:37:41;;;;;;;0.00;0.00;;;10.80;99.90;;;;;;4999337;28;20187;-66
2022/11/02 05:40:07;;;;;;;0.00;0.00;;;10.80;99.90;;;;;;4996270;28;20581;-66
2022/11/02 05:42:33;;;;;;;0.00;0.00;;;10.80;99.90;;;;;;4996319;28;20267;-66
2022/11/02 05:44:59;;;;;;;0.00;0.00;;;10.80;99.90;;;;;;4996207;28;20265;-67
2022/11/02 05:47:24;;;;;;;0.00;0.00;;;10.70;99.90;;;;;;4996145;28;20635;-67
2022/11/02 05:49:50;;;;;;;0.00;0.00;;;10.80;99.90;;;;;;4996107;28;20176;-67
2022/11/02 05:52:15;;;;;;;0.20;0.20;;;10.80;99.90;;;;;;4995991;28;20609;-67
2022/11/02 05:54:41;;;;;;;0.00;0.00;;;10.80;99.90;;;;;;4996091;28;20215;-67
2022/11/02 05:57:06;;;;;;;0.40;0.40;;;10.80;99.90;;;;;;4995863;28;20183;-67
2022/11/02 05:59:32;;;;;;;0.00;0.00;;;10.90;99.90;;;;;;4995958;28;20230;-67
2022/11/02 06:01:57;;;;;;;0.00;0.00;;;10.90;99.90;;;;;;4995745;28;20195;-67
2022/11/02 06:04:23;;;;;;;0.00;0.00;;;10.90;99.90;;;;;;4995728;28;20178;-67
2022/11/02 06:06:48;;;;;;;0.00;0.00;;;10.90;99.90;;;;;;4995901;28;20238;-67
2022/11/02 06:09:14;;;;;;;0.00;0.00;;;10.90;99.90;;;;;;4995528;28;20264;-67
2022/11/02 06:11:39;;;;;;;0.00;0.00;;;10.90;99.90;;;;;;4995685;28;20226;-67
2022/11/02 06:14:05;;;;;;;0.00;0.00;;;11.00;99.90;;;;;;4995077;28;20491;-67
2022/11/02 06:16:31;;;;;;;0.00;0.00;;;11.00;99.90;;;;;;4995051;28;20179;-67
2022/11/02 06:18:56;;;;;;;0.00;0.00;;;11.00;99.90;;;;;;4995680;28;20210;-67
2022/11/02 06:21:22;;;;;;;0.00;0.00;;;11.00;99.90;;;;;;4995667;28;20189;-67
2022/11/02 06:23:49;;;;;;;0.00;0.00;;;11.00;99.90;;;;;;4995680;28;20175;-66
2022/11/02 06:26:14;;;;;;;0.57;0.55;;;11.00;99.90;;;;;;4995526;28;20327;-67
2022/11/02 06:28:40;;;;;;;0.00;0.00;;;11.00;99.90;;;;;;4994263;28;20606;-67
2022/11/02 06:31:06;;;;;;;0.00;0.00;;;11.00;99.90;;;;;;4995205;28;20271;-67
2022/11/02 06:33:32;;;;;;;0.00;0.00;;;11.00;99.90;;;;;;4995394;28;20570;-67
2022/11/02 06:35:58;;;;;;;0.00;0.00;;;11.10;99.90;;;;;;4995624;28;20186;-67
2022/11/02 06:38:23;;;;;;;0.00;0.00;;;11.00;99.90;;;;;;4994453;28;20183;-67
2022/11/02 06:40:53;;;;;;;0.00;0.00;;;11.10;99.90;;;;;;4995226;28;20183;-67
2022/11/02 06:43:19;;;;;;;0.00;0.00;;;11.10;99.90;;;;;;4995229;28;20353;-67
2022/11/02 06:45:45;;;;;;;0.00;0.00;;;11.20;99.90;;;;;;4995647;28;20211;-67
2022/11/02 06:48:11;;;;;;;0.00;0.00;;;11.20;99.90;;;;;;4995075;28;20233;-67
2022/11/02 06:50:36;;;;;;;0.00;0.00;;;11.20;99.90;;;;;;4995156;28;20180;-67
2022/11/02 06:53:02;;;;;;;0.00;0.00;;;11.30;99.90;;;;;;4995224;28;20706;-67
2022/11/02 06:55:27;;;;;;;0.00;0.00;;;11.30;99.90;;;;;;4995082;28;20176;-67
2022/11/02 06:57:53;;;;;;;0.00;0.00;;;11.30;99.90;;;;;;4995131;28;20186;-67
2022/11/02 07:00:19;;;;;;;0.00;0.00;;;11.40;99.90;;;;;;4994929;28;20203;-67
2022/11/02 07:02:45;;;;;;;0.00;0.00;;;11.40;99.90;;;;;;4995048;28;20202;-67
2022/11/02 07:05:11;;;;;;;0.00;0.00;;;11.40;99.90;;;;;;4994786;28;20207;-67
2022/11/02 07:07:37;;;;;;;0.00;0.00;;;11.40;99.90;;;;;;4994791;28;20186;-67
2022/11/02 07:10:03;;;;;;;0.05;0.05;;;11.50;99.90;;;;;;4994823;28;20262;-67
2022/11/02 07:12:31;;;;;;;0.00;0.00;;;11.50;99.90;;;;;;4994724;28;20223;-68
2022/11/02 07:14:57;;;;;;;0.00;0.00;;;11.50;99.90;;;;;;4994822;28;20206;-67
2022/11/02 07:17:22;;;;;;;0.00;0.00;;;11.60;99.90;;;;;;4994593;28;20642;-67
2022/11/02 07:19:48;;;;;;;0.00;0.00;;;11.60;99.90;;;;;;4994634;28;20184;-67
2022/11/02 07:22:13;;;;;;;0.00;0.00;;;11.70;99.90;;;;;;4994434;28;20191;-67
2022/11/02 07:24:39;;;;;;;0.30;0.30;;;11.70;99.90;;;;;;4994598;28;20187;-67
2022/11/02 07:27:04;;;;;;;0.00;0.00;;;11.80;99.90;;;;;;4993260;28;20184;-67
2022/11/02 07:29:30;;;;;;;0.00;0.00;;;11.80;99.90;;;;;;4994204;28;20255;-67
2022/11/02 07:31:55;;;;;;;0.05;0.05;;;11.80;99.90;;;;;;4994377;28;20215;-66
2022/11/02 07:34:21;;;;;;;0.00;0.00;;;11.80;99.90;;;;;;4994309;28;20229;-67
2022/11/02 07:36:46;;;;;;;0.00;0.00;;;11.90;99.90;;;;;;4994427;28;20190;-67
2022/11/02 07:39:12;;;;;;;0.00;0.00;;;12.10;99.90;;;;;;4994178;28;20167;-66
2022/11/02 07:41:37;;;;;;;0.00;0.00;;;12.10;99.90;;;;;;4994253;28;20267;-67
2022/11/02 07:44:03;;;;;;;0.05;0.05;;;12.10;99.90;;;;;;4994109;28;20215;-67
2022/11/02 07:46:29;;;;;;;0.13;0.13;;;12.20;99.90;;;;;;4994211;28;20270;-67
2022/11/02 07:48:55;;;;;;;0.00;0.00;;;12.20;99.90;;;;;;4994114;28;20179;-67
2022/11/02 07:51:20;;;;;;;0.00;0.00;;;12.30;99.90;;;;;;4993196;28;20222;-67
2022/11/02 07:53:46;;;;;;;0.00;0.00;;;12.30;99.90;;;;;;4994032;28;20171;-67
2022/11/02 07:56:11;;;;;;;0.10;0.10;;;12.30;99.90;;;;;;4993839;28;20171;-67
2022/11/02 07:58:37;;;;;;;0.00;0.00;;;12.30;99.90;;;;;;4994066;28;20635;-67
2022/11/02 08:01:02;;;;;;;0.00;0.00;;;12.40;99.90;;;;;;4993910;28;20179;-67
2022/11/02 08:03:29;;;;;;;0.00;0.00;;;12.40;99.90;;;;;;4993814;28;20187;-67
2022/11/02 08:05:54;;;;;;;0.00;0.00;;;12.40;99.90;;;;;;4993880;28;20171;-67
2022/11/02 08:08:22;;;;;;;0.47;0.35;;;12.50;99.90;;;;;;4993652;28;20623;-67
2022/11/02 08:10:50;;;;;;;0.00;0.00;;;12.40;99.90;;;;;;4993694;28;20207;-67
2022/11/02 08:13:22;;;;;;;1.02;0.40;;;12.50;99.90;;;;;;4993573;28;20202;-67
2022/11/02 08:15:52;;;;;;;0.00;0.00;;;12.50;99.90;;;;;;4993794;28;20470;-67
2022/11/02 08:18:20;;;;;;;0.00;0.00;;;12.50;99.90;;;;;;4993625;28;20183;-67
2022/11/02 08:20:46;;;;;;;0.00;0.00;;;12.60;99.90;;;;;;4993509;28;20650;-67
2022/11/02 08:23:13;;;;;;;0.00;0.00;;;12.60;99.90;;;;;;4993403;28;20179;-67
2022/11/02 08:25:40;;;;;;;0.00;0.00;;;12.70;99.90;;;;;;4993603;28;20226;-67
2022/11/02 08:28:07;;;;;;;0.00;0.00;;;12.70;99.90;;;;;;4993335;28;20693;-67
2022/11/02 08:30:33;;;;;;;0.00;0.00;;;12.80;99.90;;;;;;4993192;28;20631;-67
2022/11/02 08:33:04;;;;;;;0.00;0.00;;;12.80;99.90;;;;;;4993435;28;20270;-67
2022/11/02 08:35:29;;;;;;;0.00;0.00;;;12.80;99.90;;;;;;4993303;28;20195;-67
2022/11/02 08:37:56;;;;;;;0.00;0.00;;;12.80;99.90;;;;;;4993367;28;20207;-67
2022/11/02 08:40:22;;;;;;;0.00;0.00;;;12.90;99.90;;;;;;4993265;28;20190;-67
2022/11/02 08:42:48;;;;;;;0.20;0.20;;;12.90;99.90;;;;;;4993226;28;20183;-67
2022/11/02 08:45:14;;;;;;;0.00;0.00;;;12.90;99.90;;;;;;4993051;28;20176;-67
2022/11/02 08:47:40;;;;;;;0.00;0.00;;;12.90;99.90;;;;;;4993206;28;20513;-68
2022/11/02 08:50:07;;;;;;;0.00;0.00;;;13.00;99.90;;;;;;4993045;28;20559;-67
2022/11/02 08:52:37;;;;;;;0.08;0.08;;;13.00;99.90;;;;;;4993104;28;20226;-67
2022/11/02 08:55:03;;;;;;;0.00;0.00;;;13.10;99.90;;;;;;4993080;28;20631;-68
2022/11/02 08:57:29;;;;;;;0.00;0.00;;;13.10;99.90;;;;;;4993010;28;20179;-67
2022/11/02 08:59:55;;;;;;;0.00;0.00;;;13.30;99.90;;;;;;4993097;28;20530;-67
2022/11/02 09:02:20;;;;;;;0.00;0.00;;;13.30;99.90;;;;;;4992897;28;20179;-67
2022/11/02 09:04:46;;;;;;;0.00;0.00;;;13.40;99.90;;;;;;4993067;28;20563;-67
2022/11/02 09:07:11;;;;;;;0.05;0.05;;;13.50;99.90;;;;;;4992778;28;20702;-67
2022/11/02 09:09:37;;;;;;;0.00;0.00;;;13.60;99.90;;;;;;4993016;28;20176;-67
2022/11/02 09:12:02;;;;;;;0.00;0.00;;;13.50;99.90;;;;;;4992856;28;20242;-67
2022/11/02 09:14:28;;;;;;;0.00;0.00;;;13.60;99.90;;;;;;4992785;28;20195;-67
2022/11/02 09:16:53;;;;;;;0.52;0.20;;;13.60;99.90;;;;;;4992908;28;20669;-68
2022/11/02 09:19:19;;;;;;;0.00;0.00;;;13.70;99.90;;;;;;4992841;28;20179;-67
2022/11/02 09:21:44;;;;;;;0.00;0.00;;;13.70;99.90;;;;;;4992827;28;20255;-67
2022/11/02 09:24:10;;;;;;;0.00;0.00;;;13.70;99.90;;;;;;4991435;28;20179;-67
2022/11/02 09:26:35;;;;;;;0.00;0.00;;;13.70;99.90;;;;;;4992872;28;20180;-67
2022/11/02 09:29:01;;;;;;;0.00;0.00;;;13.70;99.90;;;;;;4992720;28;20698;-67
2022/11/02 09:31:28;;;;;;;0.00;0.00;;;13.80;99.90;;;;;;4992559;28;20242;-67
2022/11/02 09:33:54;;;;;;;0.05;0.05;;;13.80;99.90;;;;;;4992792;28;20183;-67
2022/11/02 09:36:20;;;;;;;0.00;0.00;;;13.80;99.90;;;;;;4992724;28;20180;-68
2022/11/02 09:38:45;;;;;;;0.00;0.00;;;13.80;99.90;;;;;;4992743;28;20218;-67
2022/11/02 09:41:19;;;;;;;0.00;0.00;;;13.80;99.90;;;;;;4992599;28;20199;-67
2022/11/02 09:43:50;;;;;;;0.00;0.00;;;13.80;99.90;;;;;;4992634;28;20639;-67
2022/11/02 09:46:29;;;;;;;0.00;0.00;;;13.80;99.90;;;;;;4992623;28;20242;-67
2022/11/02 09:49:05;;;;;;;0.00;0.00;;;13.70;99.90;;;;;;4992649;28;20217;-67
2022/11/02 09:51:41;;;;;;;0.10;0.10;;;13.70;99.90;;;;;;4992490;28;20215;-67
2022/11/02 09:54:19;;;;;;;0.00;0.00;;;13.80;99.90;;;;;;4992618;28;20176;-67
2022/11/02 09:56:45;;;;;;;0.00;0.00;;;13.80;99.90;;;;;;4992670;28;20187;-67
2022/11/02 09:59:17;;;;;;;0.00;0.00;;;13.80;99.90;;;;;;4992398;28;20183;-67
2022/11/02 10:01:55;;;;;;;0.00;0.00;;;13.80;99.90;;;;;;4992625;28;20215;-67
2022/11/02 10:04:41;;;;;;;0.00;0.00;;;13.90;99.90;;;;;;4992446;28;20258;-67
2022/11/02 10:07:18;;;;;;;0.00;0.00;;;13.90;99.90;;;;;;4992318;28;20669;-67
2022/11/02 10:09:54;;;;;;;0.00;0.00;;;13.90;99.90;;;;;;4992397;28;20535;-67
2022/11/02 10:12:28;;;;;;;0.00;0.00;;;14.10;99.90;;;;;;4992281;28;20218;-67
2022/11/02 10:15:03;;;;;;;0.00;0.00;;;14.20;99.90;;;;;;4995097;28;20172;-67
2022/11/02 10:17:32;;;;;;;0.00;0.00;;;14.30;99.90;;;;;;4995879;28;20202;-67
2022/11/02 10:20:05;;;;;;;0.00;0.00;;;14.50;99.90;;;;;;4996060;28;20279;-67
2022/11/02 10:22:36;;;;;;;0.00;0.00;;;14.70;99.90;;;;;;4995868;28;20274;-66
2022/11/02 10:25:05;;;;;;;0.00;0.00;;;14.80;99.90;;;;;;4995852;28;20175;-67
2022/11/02 10:27:36;;;;;;;0.00;0.00;;;14.80;99.90;;;;;;4995621;28;20184;-67
2022/11/02 10:30:13;;;;;;;0.00;0.00;;;14.70;99.90;;;;;;4995394;28;20708;-67
2022/11/02 10:32:41;;;;;;;0.00;0.00;;;14.50;99.90;;;;;;4995512;28;20222;-67
2022/11/02 10:35:29;;;;;;;0.00;0.00;;;14.50;99.90;;;;;;4995590;28;20203;-67
2022/11/02 10:38:15;;;;;;;0.00;0.00;;;14.50;99.90;;;;;;4995434;28;20658;-67
2022/11/02 10:40:48;;;;;;;0.00;0.00;;;14.40;99.90;;;;;;4995465;28;20199;-67
2022/11/02 10:43:32;;;;;;;0.45;0.38;;;14.40;99.90;;;;;;4995313;28;20615;-67
2022/11/02 10:46:07;;;;;;;0.13;0.10;;;14.40;99.90;;;;;;4995371;28;20186;-67
2022/11/02 10:48:39;;;;;;;0.00;0.00;;;14.40;99.90;;;;;;4995331;28;20177;-67
2022/11/02 10:51:09;;;;;;;0.00;0.00;;;14.60;99.90;;;;;;4995190;28;20215;-67
2022/11/02 10:53:46;;;;;;;0.00;0.00;;;14.60;99.90;;;;;;4995275;28;20198;-67
2022/11/02 10:56:22;;;;;;;0.00;0.00;;;14.70;99.90;;;;;;4995090;28;20231;-67
2022/11/02 10:58:51;;;;;;;0.00;0.00;;;14.70;99.90;;;;;;4995160;28;20179;-67
2022/11/02 11:01:16;;;;;;;0.00;0.00;;;14.90;99.90;;;;;;4994996;28;20195;-67
2022/11/02 11:03:58;;;;;;;0.00;0.00;;;15.10;99.90;;;;;;4993852;28;20175;-67
2022/11/02 11:06:42;;;;;;;0.00;0.00;;;15.10;99.90;;;;;;4994867;28;20179;-68
2022/11/02 11:09:16;;;;;;;0.00;0.00;;;15.30;99.90;;;;;;4994910;28;20222;-68
2022/11/02 11:11:53;;;;;;;0.00;0.00;;;15.40;99.90;;;;;;4994835;28;20207;-68
2022/11/02 11:14:22;;;;;;;0.00;0.00;;;15.60;99.90;;;;;;4994723;28;20231;-68
2022/11/02 11:17:00;;;;;;;0.00;0.00;;;15.80;99.90;;;;;;4994769;28;20179;-68
2022/11/02 11:19:40;;;;;;;0.00;0.00;;;16.00;99.90;;;;;;4994602;28;20225;-68
2022/11/02 11:22:29;;;;;;;0.00;0.00;;;15.90;99.50;;;;;;4994606;28;20193;-68
2022/11/02 11:25:23;;;;;;;0.00;0.00;;;15.90;99.00;;;;;;4993553;28;20258;-67
2022/11/02 11:27:57;;;;;;;0.00;0.00;;;15.90;98.50;;;;;;4994684;28;20182;-68
2022/11/02 11:30:30;;;;;;;0.00;0.00;;;16.00;99.20;;;;;;4994282;28;20226;-67
2022/11/02 11:32:58;;;;;;;0.10;0.10;;;16.00;99.20;;;;;;4994356;28;20233;-68
2022/11/02 11:35:29;;;;;;;0.00;0.00;;;16.10;98.60;;;;;;4994301;28;20207;-67
2022/11/02 11:37:58;;;;;;;0.00;0.00;;;16.10;98.00;;;;;;4994383;28;20168;-67
2022/11/02 11:40:25;;;;;;;0.00;0.00;;;16.20;98.00;;;;;;4994159;28;20180;-68
2022/11/02 11:42:55;;;;;;;0.00;0.00;;;16.30;98.00;;;;;;4994206;28;20174;-68
2022/11/02 11:45:29;;;;;;;0.00;0.00;;;16.20;97.80;;;;;;4994126;28;20517;-67
2022/11/02 11:48:02;;;;;;;0.00;0.00;;;16.30;97.80;;;;;;4992892;28;20590;-68
2022/11/02 11:50:27;;;;;;;0.00;0.00;;;16.40;97.80;;;;;;4994358;28;20643;-67
2022/11/02 11:53:23;;;;;;;0.00;0.00;;;16.30;96.80;;;;;;4993837;28;20217;-67
2022/11/02 11:55:51;;;;;;;0.00;0.00;;;16.30;95.70;;;;;;4994007;28;20180;-68
2022/11/02 11:58:33;;;;;;;0.00;0.00;;;16.30;95.50;;;;;;4993878;28;20210;-67
2022/11/02 12:01:18;;;;;;;0.00;0.00;;;16.10;94.60;;;;;;4993974;28;20183;-67
2022/11/02 12:03:55;;;;;;;0.00;0.00;;;16.00;94.70;;;;;;4993987;28;20589;-67
2022/11/02 12:06:29;;;;;;;0.00;0.00;;;16.00;95.60;;;;;;4993719;28;20635;-67
2022/11/02 12:09:03;;;;;;;0.00;0.00;;;16.10;95.20;;;;;;4993829;28;20545;-67
2022/11/02 12:11:53;;;;;;;0.00;0.00;;;16.20;94.80;;;;;;4993603;28;20242;-68
2022/11/02 12:14:30;;;;;;;0.40;0.40;;;16.20;95.70;;;;;;4992447;28;20186;-68
2022/11/02 12:17:07;;;;;;;0.00;0.00;;;16.20;95.20;;;;;;4993763;28;20186;-68
2022/11/02 12:20:14;;;;;;;0.00;0.00;;;16.20;94.70;;;;;;4993673;28;20175;-67
2022/11/02 12:23:01;;;;;;;0.00;0.00;;;16.10;94.80;;;;;;4974390;28;20199;-68
2022/11/02 12:25:36;;;;;;;0.00;0.00;;;16.10;95.00;;;;;;4993571;28;20183;-67
2022/11/02 12:28:27;;;;;;;0.00;0.00;;;16.10;94.50;;;;;;4993516;28;20179;-68
2022/11/02 12:31:20;;;;;;;0.00;0.00;;;16.10;94.50;;;;;;4993179;28;20286;-68
2022/11/02 12:34:10;;;;;;;0.00;0.00;;;16.10;94.20;;;;;;4993497;28;20218;-68
2022/11/02 12:36:53;;;;;;;0.00;0.00;;;16.20;94.90;;;;;;4993040;28;20685;-68
2022/11/02 12:39:32;;;;;;;0.20;0.15;;;16.10;94.50;;;;;;4993307;28;20176;-68
2022/11/02 12:42:10;;;;;;;0.00;0.00;;;16.10;94.80;;;;;;4993297;28;20593;-68
2022/11/02 12:44:45;;;;;;;0.00;0.00;;;16.10;94.70;;;;;;4993208;28;20744;-68
2022/11/02 12:47:29;;;;;;;0.00;0.00;;;16.10;94.40;;;;;;4993401;28;20179;-68
2022/11/02 12:50:13;;;;;;;0.00;0.00;;;16.00;94.10;;;;;;4993169;28;20179;-67
2022/11/02 12:53:27;;;;;;;0.00;0.00;;;16.00;93.70;;;;;;4993324;28;20293;-67
2022/11/02 12:55:56;;;;;;;0.00;0.00;;;16.00;94.20;;;;;;4988069;28;20215;-67
2022/11/02 12:58:26;;;;;;;0.00;0.00;;;15.90;94.60;;;;;;4993036;28;20167;-67
2022/11/02 13:00:57;;;;;;;0.00;0.00;;;16.00;94.60;;;;;;4992982;28;20172;-67
2022/11/02 13:03:53;;;;;;;0.00;0.00;;;16.00;94.80;;;;;;4993042;28;20191;-68
2022/11/02 13:06:24;;;;;;;0.00;0.00;;;16.00;94.70;;;;;;4990426;28;20191;-67
2022/11/02 13:08:58;;;;;;;0.00;0.00;;;16.00;94.60;;;;;;4993105;28;20176;-68
2022/11/02 13:11:32;;;;;;;0.00;0.00;;;15.90;94.40;;;;;;4992935;28;20269;-68
2022/11/02 13:14:01;;;;;;;0.00;0.00;;;15.90;93.90;;;;;;4992987;28;20183;-67
2022/11/02 13:16:42;;;;;;;0.00;0.00;;;15.80;93.80;;;;;;4992891;28;20172;-68
2022/11/02 13:19:25;;;;;;;0.00;0.00;;;15.80;93.80;;;;;;4992859;28;20175;-68